sensor_id;sensor_type;location;lat;lon;timestamp;P1;durP1;ratioP1;P2;durP2;ratioP2
60354;SDS011;46198;51.464;-0.066;2023-04-03T00:01:32;6.87;;;2.20;;
60354;SDS011;46198;51.464;-0.066;2023-04-03T00:04:04;5.20;;;2.40;;
60354;SDS011;46198;51.464;-0.066;2023-04-03T00:06:32;5.83;;;1.80;;
60354;SDS011;46198;51.464;-0.066;2023-04-03T00:09:01;7.77;;;2.00;;
60354;SDS011;46198;51.464;-0.066;2023-04-03T00:11:30;3.70;;;2.10;;
60354;SDS011;46198;51.464;-0.066;2023-04-03T00:13:59;7.83;;;1.57;;
60354;SDS011;46198;51.464;-0.066;2023-04-03T00:16:27;5.77;;;1.70;;
60354;SDS011;46198;51.464;-0.066;2023-04-03T00:18:55;3.53;;;1.53;;
60354;SDS011;46198;51.464;-0.066;2023-04-03T00:21:23;7.47;;;2.23;;
60354;SDS011;46198;51.464;-0.066;2023-04-03T00:23:52;4.30;;;1.60;;
60354;SDS011;46198;51.464;-0.066;2023-04-03T00:26:20;11.23;;;2.00;;
60354;SDS011;46198;51.464;-0.066;2023-04-03T00:28:48;10.57;;;2.00;;
60354;SDS011;46198;51.464;-0.066;2023-04-03T00:31:18;6.83;;;1.93;;
60354;SDS011;46198;51.464;-0.066;2023-04-03T00:33:46;7.63;;;1.80;;
60354;SDS011;46198;51.464;-0.066;2023-04-03T00:36:14;7.63;;;2.10;;
60354;SDS011;46198;51.464;-0.066;2023-04-03T00:38:42;9.93;;;1.80;;
60354;SDS011;46198;51.464;-0.066;2023-04-03T00:41:11;9.30;;;2.47;;
60354;SDS011;46198;51.464;-0.066;2023-04-03T00:43:39;9.27;;;1.80;;
60354;SDS011;46198;51.464;-0.066;2023-04-03T00:46:07;6.70;;;1.80;;
60354;SDS011;46198;51.464;-0.066;2023-04-03T00:48:38;10.70;;;2.30;;
60354;SDS011;46198;51.464;-0.066;2023-04-03T00:51:09;3.67;;;1.87;;
60354;SDS011;46198;51.464;-0.066;2023-04-03T00:53:41;13.50;;;2.00;;
60354;SDS011;46198;51.464;-0.066;2023-04-03T00:56:14;3.73;;;1.43;;
60354;SDS011;46198;51.464;-0.066;2023-04-03T00:58:46;9.30;;;2.20;;
60354;SDS011;46198;51.464;-0.066;2023-04-03T01:01:20;9.67;;;1.80;;
60354;SDS011;46198;51.464;-0.066;2023-04-03T01:03:53;11.03;;;2.10;;
60354;SDS011;46198;51.464;-0.066;2023-04-03T01:06:24;3.47;;;1.53;;
60354;SDS011;46198;51.464;-0.066;2023-04-03T01:09:00;5.20;;;1.80;;
60354;SDS011;46198;51.464;-0.066;2023-04-03T01:11:29;8.57;;;2.00;;
60354;SDS011;46198;51.464;-0.066;2023-04-03T01:13:58;5.67;;;1.67;;
60354;SDS011;46198;51.464;-0.066;2023-04-03T01:16:28;11.20;;;1.73;;
60354;SDS011;46198;51.464;-0.066;2023-04-03T01:19:00;7.25;;;1.38;;
60354;SDS011;46198;51.464;-0.066;2023-04-03T01:24:31;6.22;;;1.65;;
60354;SDS011;46198;51.464;-0.066;2023-04-03T01:27:05;7.47;;;1.67;;
60354;SDS011;46198;51.464;-0.066;2023-04-03T01:29:36;7.67;;;1.50;;
60354;SDS011;46198;51.464;-0.066;2023-04-03T01:32:08;5.13;;;1.30;;
60354;SDS011;46198;51.464;-0.066;2023-04-03T01:34:36;8.50;;;2.00;;
60354;SDS011;46198;51.464;-0.066;2023-04-03T01:37:05;8.23;;;1.53;;
60354;SDS011;46198;51.464;-0.066;2023-04-03T01:39:33;2.57;;;1.10;;
60354;SDS011;46198;51.464;-0.066;2023-04-03T01:42:01;8.03;;;2.00;;
60354;SDS011;46198;51.464;-0.066;2023-04-03T01:44:34;6.00;;;1.30;;
60354;SDS011;46198;51.464;-0.066;2023-04-03T01:47:04;5.37;;;1.33;;
60354;SDS011;46198;51.464;-0.066;2023-04-03T01:52:03;4.00;;;1.40;;
60354;SDS011;46198;51.464;-0.066;2023-04-03T01:54:31;14.20;;;1.77;;
60354;SDS011;46198;51.464;-0.066;2023-04-03T01:56:59;5.00;;;1.30;;
60354;SDS011;46198;51.464;-0.066;2023-04-03T01:59:27;5.47;;;1.23;;
60354;SDS011;46198;51.464;-0.066;2023-04-03T02:01:55;3.37;;;1.20;;
60354;SDS011;46198;51.464;-0.066;2023-04-03T02:04:24;8.07;;;1.50;;
60354;SDS011;46198;51.464;-0.066;2023-04-03T02:06:54;5.03;;;1.37;;
60354;SDS011;46198;51.464;-0.066;2023-04-03T02:09:22;8.03;;;1.93;;
60354;SDS011;46198;51.464;-0.066;2023-04-03T02:11:51;5.50;;;2.30;;
60354;SDS011;46198;51.464;-0.066;2023-04-03T02:14:19;6.33;;;1.40;;
60354;SDS011;46198;51.464;-0.066;2023-04-03T02:16:48;6.37;;;1.57;;
60354;SDS011;46198;51.464;-0.066;2023-04-03T02:19:16;7.73;;;1.60;;
60354;SDS011;46198;51.464;-0.066;2023-04-03T02:21:44;2.13;;;1.60;;
60354;SDS011;46198;51.464;-0.066;2023-04-03T02:24:15;7.07;;;2.03;;
60354;SDS011;46198;51.464;-0.066;2023-04-03T02:26:43;5.70;;;1.57;;
60354;SDS011;46198;51.464;-0.066;2023-04-03T02:29:11;8.23;;;2.10;;
60354;SDS011;46198;51.464;-0.066;2023-04-03T02:31:39;7.53;;;1.80;;
60354;SDS011;46198;51.464;-0.066;2023-04-03T02:34:07;5.97;;;1.20;;
60354;SDS011;46198;51.464;-0.066;2023-04-03T02:36:36;5.40;;;1.50;;
60354;SDS011;46198;51.464;-0.066;2023-04-03T02:39:07;8.40;;;1.80;;
60354;SDS011;46198;51.464;-0.066;2023-04-03T02:41:38;3.77;;;1.73;;
60354;SDS011;46198;51.464;-0.066;2023-04-03T02:44:12;8.50;;;1.53;;
60354;SDS011;46198;51.464;-0.066;2023-04-03T02:46:40;5.90;;;1.60;;
60354;SDS011;46198;51.464;-0.066;2023-04-03T02:49:08;4.50;;;1.27;;
60354;SDS011;46198;51.464;-0.066;2023-04-03T02:51:36;7.33;;;1.60;;
60354;SDS011;46198;51.464;-0.066;2023-04-03T02:54:05;13.20;;;2.27;;
60354;SDS011;46198;51.464;-0.066;2023-04-03T02:56:38;6.72;;;1.50;;
60354;SDS011;46198;51.464;-0.066;2023-04-03T02:59:06;6.70;;;1.57;;
60354;SDS011;46198;51.464;-0.066;2023-04-03T03:01:36;6.00;;;1.50;;
60354;SDS011;46198;51.464;-0.066;2023-04-03T03:04:04;8.40;;;1.70;;
60354;SDS011;46198;51.464;-0.066;2023-04-03T03:06:33;4.10;;;1.37;;
60354;SDS011;46198;51.464;-0.066;2023-04-03T03:09:01;7.60;;;1.80;;
60354;SDS011;46198;51.464;-0.066;2023-04-03T03:11:30;5.33;;;1.47;;
60354;SDS011;46198;51.464;-0.066;2023-04-03T03:13:59;6.23;;;1.67;;
60354;SDS011;46198;51.464;-0.066;2023-04-03T03:16:27;3.97;;;1.40;;
60354;SDS011;46198;51.464;-0.066;2023-04-03T03:18:55;8.87;;;1.70;;
60354;SDS011;46198;51.464;-0.066;2023-04-03T03:21:24;7.97;;;1.73;;
60354;SDS011;46198;51.464;-0.066;2023-04-03T03:23:53;11.37;;;2.23;;
60354;SDS011;46198;51.464;-0.066;2023-04-03T03:26:21;9.73;;;2.43;;
60354;SDS011;46198;51.464;-0.066;2023-04-03T03:28:49;7.97;;;1.73;;
60354;SDS011;46198;51.464;-0.066;2023-04-03T03:31:19;5.70;;;1.50;;
60354;SDS011;46198;51.464;-0.066;2023-04-03T03:33:48;5.35;;;2.00;;
60354;SDS011;46198;51.464;-0.066;2023-04-03T03:36:16;5.53;;;1.57;;
60354;SDS011;46198;51.464;-0.066;2023-04-03T03:38:44;6.67;;;1.57;;
60354;SDS011;46198;51.464;-0.066;2023-04-03T03:41:12;4.10;;;1.47;;
60354;SDS011;46198;51.464;-0.066;2023-04-03T03:43:42;3.53;;;1.57;;
60354;SDS011;46198;51.464;-0.066;2023-04-03T03:46:13;9.05;;;1.90;;
60354;SDS011;46198;51.464;-0.066;2023-04-03T03:48:42;8.20;;;1.50;;
60354;SDS011;46198;51.464;-0.066;2023-04-03T03:51:10;3.53;;;1.80;;
60354;SDS011;46198;51.464;-0.066;2023-04-03T03:53:39;9.03;;;2.00;;
60354;SDS011;46198;51.464;-0.066;2023-04-03T03:56:12;7.03;;;1.67;;
60354;SDS011;46198;51.464;-0.066;2023-04-03T03:58:41;11.93;;;1.60;;
60354;SDS011;46198;51.464;-0.066;2023-04-03T04:01:09;5.90;;;1.70;;
60354;SDS011;46198;51.464;-0.066;2023-04-03T04:03:43;7.47;;;1.67;;
60354;SDS011;46198;51.464;-0.066;2023-04-03T04:06:16;9.57;;;1.37;;
60354;SDS011;46198;51.464;-0.066;2023-04-03T04:08:44;4.43;;;1.40;;
60354;SDS011;46198;51.464;-0.066;2023-04-03T04:11:14;1.63;;;1.10;;
60354;SDS011;46198;51.464;-0.066;2023-04-03T04:13:44;7.10;;;1.67;;
60354;SDS011;46198;51.464;-0.066;2023-04-03T04:16:14;5.53;;;2.17;;
60354;SDS011;46198;51.464;-0.066;2023-04-03T04:18:44;6.67;;;1.90;;
60354;SDS011;46198;51.464;-0.066;2023-04-03T04:25:45;13.93;;;1.90;;
60354;SDS011;46198;51.464;-0.066;2023-04-03T04:28:13;2.63;;;1.50;;
60354;SDS011;46198;51.464;-0.066;2023-04-03T04:30:42;8.40;;;1.60;;
60354;SDS011;46198;51.464;-0.066;2023-04-03T04:33:12;5.53;;;1.67;;
60354;SDS011;46198;51.464;-0.066;2023-04-03T04:35:43;5.90;;;1.77;;
60354;SDS011;46198;51.464;-0.066;2023-04-03T04:38:11;5.30;;;1.50;;
60354;SDS011;46198;51.464;-0.066;2023-04-03T04:40:39;9.20;;;2.67;;
60354;SDS011;46198;51.464;-0.066;2023-04-03T04:43:08;4.93;;;1.67;;
60354;SDS011;46198;51.464;-0.066;2023-04-03T04:45:37;5.10;;;1.80;;
60354;SDS011;46198;51.464;-0.066;2023-04-03T04:48:05;7.20;;;2.20;;
60354;SDS011;46198;51.464;-0.066;2023-04-03T04:50:34;14.40;;;2.07;;
60354;SDS011;46198;51.464;-0.066;2023-04-03T04:53:03;6.23;;;1.57;;
60354;SDS011;46198;51.464;-0.066;2023-04-03T04:55:32;7.90;;;1.63;;
60354;SDS011;46198;51.464;-0.066;2023-04-03T04:58:00;5.13;;;1.80;;
60354;SDS011;46198;51.464;-0.066;2023-04-03T05:00:29;8.87;;;2.17;;
60354;SDS011;46198;51.464;-0.066;2023-04-03T05:02:57;7.10;;;2.23;;
60354;SDS011;46198;51.464;-0.066;2023-04-03T05:05:25;6.10;;;1.80;;
60354;SDS011;46198;51.464;-0.066;2023-04-03T05:07:54;6.63;;;1.67;;
60354;SDS011;46198;51.464;-0.066;2023-04-03T05:10:23;5.87;;;1.80;;
60354;SDS011;46198;51.464;-0.066;2023-04-03T05:12:52;5.03;;;1.73;;
60354;SDS011;46198;51.464;-0.066;2023-04-03T05:15:20;4.67;;;2.10;;
60354;SDS011;46198;51.464;-0.066;2023-04-03T05:17:48;6.03;;;1.97;;
60354;SDS011;46198;51.464;-0.066;2023-04-03T05:20:18;4.17;;;1.60;;
60354;SDS011;46198;51.464;-0.066;2023-04-03T05:22:47;7.97;;;2.00;;
60354;SDS011;46198;51.464;-0.066;2023-04-03T05:25:16;6.80;;;2.07;;
60354;SDS011;46198;51.464;-0.066;2023-04-03T05:27:45;7.40;;;2.30;;
60354;SDS011;46198;51.464;-0.066;2023-04-03T05:30:13;9.90;;;2.30;;
60354;SDS011;46198;51.464;-0.066;2023-04-03T05:32:42;6.87;;;2.43;;
60354;SDS011;46198;51.464;-0.066;2023-04-03T05:35:21;8.37;;;2.17;;
60354;SDS011;46198;51.464;-0.066;2023-04-03T05:41:43;8.57;;;2.13;;
60354;SDS011;46198;51.464;-0.066;2023-04-03T05:44:13;4.70;;;2.20;;
60354;SDS011;46198;51.464;-0.066;2023-04-03T05:46:43;11.87;;;2.60;;
60354;SDS011;46198;51.464;-0.066;2023-04-03T05:49:11;5.13;;;2.23;;
60354;SDS011;46198;51.464;-0.066;2023-04-03T05:51:40;7.53;;;1.97;;
60354;SDS011;46198;51.464;-0.066;2023-04-03T05:54:16;10.17;;;2.37;;
60354;SDS011;46198;51.464;-0.066;2023-04-03T05:56:47;5.10;;;2.20;;
60354;SDS011;46198;51.464;-0.066;2023-04-03T05:59:17;5.33;;;2.00;;
60354;SDS011;46198;51.464;-0.066;2023-04-03T06:01:49;8.90;;;2.20;;
60354;SDS011;46198;51.464;-0.066;2023-04-03T06:04:17;8.97;;;2.53;;
60354;SDS011;46198;51.464;-0.066;2023-04-03T06:06:48;10.07;;;2.70;;
60354;SDS011;46198;51.464;-0.066;2023-04-03T06:09:19;5.07;;;1.93;;
60354;SDS011;46198;51.464;-0.066;2023-04-03T06:11:48;5.07;;;2.40;;
60354;SDS011;46198;51.464;-0.066;2023-04-03T06:14:18;7.10;;;2.30;;
60354;SDS011;46198;51.464;-0.066;2023-04-03T06:16:46;4.97;;;2.47;;
60354;SDS011;46198;51.464;-0.066;2023-04-03T06:19:14;12.00;;;2.50;;
60354;SDS011;46198;51.464;-0.066;2023-04-03T06:21:47;6.03;;;2.50;;
60354;SDS011;46198;51.464;-0.066;2023-04-03T06:24:16;5.30;;;2.43;;
60354;SDS011;46198;51.464;-0.066;2023-04-03T06:26:44;3.83;;;2.30;;
60354;SDS011;46198;51.464;-0.066;2023-04-03T06:29:13;4.27;;;2.33;;
60354;SDS011;46198;51.464;-0.066;2023-04-03T06:31:42;7.47;;;2.60;;
60354;SDS011;46198;51.464;-0.066;2023-04-03T06:34:10;7.60;;;2.30;;
60354;SDS011;46198;51.464;-0.066;2023-04-03T06:36:39;7.33;;;2.77;;
60354;SDS011;46198;51.464;-0.066;2023-04-03T06:39:08;9.90;;;3.10;;
60354;SDS011;46198;51.464;-0.066;2023-04-03T06:41:39;7.60;;;3.07;;
60354;SDS011;46198;51.464;-0.066;2023-04-03T06:44:07;7.87;;;3.27;;
60354;SDS011;46198;51.464;-0.066;2023-04-03T06:46:37;10.20;;;3.40;;
60354;SDS011;46198;51.464;-0.066;2023-04-03T06:49:08;8.87;;;3.77;;
60354;SDS011;46198;51.464;-0.066;2023-04-03T06:51:36;11.13;;;3.95;;
60354;SDS011;46198;51.464;-0.066;2023-04-03T06:54:05;5.13;;;2.90;;
60354;SDS011;46198;51.464;-0.066;2023-04-03T06:56:34;8.57;;;3.30;;
60354;SDS011;46198;51.464;-0.066;2023-04-03T06:59:03;9.40;;;3.30;;
60354;SDS011;46198;51.464;-0.066;2023-04-03T07:01:31;11.50;;;3.40;;
60354;SDS011;46198;51.464;-0.066;2023-04-03T07:03:59;8.20;;;3.03;;
60354;SDS011;46198;51.464;-0.066;2023-04-03T07:06:29;14.40;;;3.20;;
60354;SDS011;46198;51.464;-0.066;2023-04-03T07:08:58;8.55;;;3.22;;
60354;SDS011;46198;51.464;-0.066;2023-04-03T07:11:27;11.13;;;3.47;;
60354;SDS011;46198;51.464;-0.066;2023-04-03T07:13:55;7.80;;;2.53;;
60354;SDS011;46198;51.464;-0.066;2023-04-03T07:16:23;7.47;;;2.93;;
60354;SDS011;46198;51.464;-0.066;2023-04-03T07:18:51;9.27;;;3.40;;
60354;SDS011;46198;51.464;-0.066;2023-04-03T07:21:19;11.20;;;3.57;;
60354;SDS011;46198;51.464;-0.066;2023-04-03T07:23:49;5.57;;;2.40;;
60354;SDS011;46198;51.464;-0.066;2023-04-03T07:26:17;6.53;;;2.60;;
60354;SDS011;46198;51.464;-0.066;2023-04-03T07:28:47;8.27;;;2.83;;
60354;SDS011;46198;51.464;-0.066;2023-04-03T07:31:16;6.33;;;2.90;;
60354;SDS011;46198;51.464;-0.066;2023-04-03T07:33:45;4.17;;;2.57;;
60354;SDS011;46198;51.464;-0.066;2023-04-03T07:36:14;10.00;;;2.90;;
60354;SDS011;46198;51.464;-0.066;2023-04-03T07:38:45;6.33;;;2.80;;
60354;SDS011;46198;51.464;-0.066;2023-04-03T07:41:15;8.20;;;3.17;;
60354;SDS011;46198;51.464;-0.066;2023-04-03T07:43:45;9.97;;;3.57;;
60354;SDS011;46198;51.464;-0.066;2023-04-03T07:48:45;8.70;;;3.10;;
60354;SDS011;46198;51.464;-0.066;2023-04-03T07:51:14;14.10;;;4.10;;
60354;SDS011;46198;51.464;-0.066;2023-04-03T07:53:42;10.03;;;3.00;;
60354;SDS011;46198;51.464;-0.066;2023-04-03T07:56:10;12.47;;;3.97;;
60354;SDS011;46198;51.464;-0.066;2023-04-03T07:58:40;11.33;;;3.07;;
60354;SDS011;46198;51.464;-0.066;2023-04-03T08:01:08;7.47;;;2.33;;
60354;SDS011;46198;51.464;-0.066;2023-04-03T08:03:37;9.17;;;3.27;;
60354;SDS011;46198;51.464;-0.066;2023-04-03T08:06:07;13.47;;;3.30;;
60354;SDS011;46198;51.464;-0.066;2023-04-03T08:08:41;6.97;;;3.03;;
60354;SDS011;46198;51.464;-0.066;2023-04-03T08:11:10;9.53;;;2.97;;
60354;SDS011;46198;51.464;-0.066;2023-04-03T08:13:40;5.33;;;2.30;;
60354;SDS011;46198;51.464;-0.066;2023-04-03T08:16:10;6.10;;;3.22;;
60354;SDS011;46198;51.464;-0.066;2023-04-03T08:18:40;13.27;;;3.03;;
60354;SDS011;46198;51.464;-0.066;2023-04-03T08:21:08;13.30;;;3.37;;
60354;SDS011;46198;51.464;-0.066;2023-04-03T08:23:38;4.90;;;2.70;;
60354;SDS011;46198;51.464;-0.066;2023-04-03T08:26:08;8.77;;;3.20;;
60354;SDS011;46198;51.464;-0.066;2023-04-03T08:28:37;9.23;;;3.27;;
60354;SDS011;46198;51.464;-0.066;2023-04-03T08:31:08;11.27;;;2.83;;
60354;SDS011;46198;51.464;-0.066;2023-04-03T08:33:38;8.70;;;2.97;;
60354;SDS011;46198;51.464;-0.066;2023-04-03T08:36:07;12.93;;;4.13;;
60354;SDS011;46198;51.464;-0.066;2023-04-03T08:38:45;7.33;;;3.00;;
60354;SDS011;46198;51.464;-0.066;2023-04-03T08:41:14;7.30;;;3.27;;
60354;SDS011;46198;51.464;-0.066;2023-04-03T08:43:53;6.10;;;2.70;;
60354;SDS011;46198;51.464;-0.066;2023-04-03T08:46:31;6.40;;;3.20;;
60354;SDS011;46198;51.464;-0.066;2023-04-03T08:49:10;11.23;;;4.30;;
60354;SDS011;46198;51.464;-0.066;2023-04-03T08:51:43;9.77;;;4.47;;
60354;SDS011;46198;51.464;-0.066;2023-04-03T08:54:19;8.10;;;3.78;;
60354;SDS011;46198;51.464;-0.066;2023-04-03T08:56:53;9.68;;;3.60;;
60354;SDS011;46198;51.464;-0.066;2023-04-03T08:59:24;8.68;;;3.83;;
60354;SDS011;46198;51.464;-0.066;2023-04-03T09:01:58;10.57;;;3.80;;
60354;SDS011;46198;51.464;-0.066;2023-04-03T09:04:31;13.05;;;4.70;;
60354;SDS011;46198;51.464;-0.066;2023-04-03T09:07:03;10.43;;;4.78;;
60354;SDS011;46198;51.464;-0.066;2023-04-03T09:09:37;11.60;;;4.63;;
60354;SDS011;46198;51.464;-0.066;2023-04-03T09:12:12;12.23;;;4.72;;
60354;SDS011;46198;51.464;-0.066;2023-04-03T09:14:49;16.25;;;5.40;;
60354;SDS011;46198;51.464;-0.066;2023-04-03T09:17:30;11.52;;;4.82;;
60354;SDS011;46198;51.464;-0.066;2023-04-03T09:20:09;14.02;;;5.00;;
60354;SDS011;46198;51.464;-0.066;2023-04-03T09:22:46;13.98;;;4.68;;
60354;SDS011;46198;51.464;-0.066;2023-04-03T09:25:19;10.90;;;4.45;;
60354;SDS011;46198;51.464;-0.066;2023-04-03T09:27:49;13.80;;;5.38;;
60354;SDS011;46198;51.464;-0.066;2023-04-03T09:30:19;10.98;;;5.40;;
60354;SDS011;46198;51.464;-0.066;2023-04-03T09:32:51;13.00;;;5.70;;
60354;SDS011;46198;51.464;-0.066;2023-04-03T09:35:22;15.55;;;6.18;;
60354;SDS011;46198;51.464;-0.066;2023-04-03T09:38:17;11.77;;;4.82;;
60354;SDS011;46198;51.464;-0.066;2023-04-03T09:40:47;10.45;;;4.65;;
60354;SDS011;46198;51.464;-0.066;2023-04-03T09:45:51;12.57;;;4.97;;
60354;SDS011;46198;51.464;-0.066;2023-04-03T09:48:22;9.93;;;5.03;;
60354;SDS011;46198;51.464;-0.066;2023-04-03T09:50:58;14.95;;;5.40;;
60354;SDS011;46198;51.464;-0.066;2023-04-03T09:53:32;9.55;;;4.80;;
60354;SDS011;46198;51.464;-0.066;2023-04-03T09:56:03;10.93;;;5.93;;
60354;SDS011;46198;51.464;-0.066;2023-04-03T09:58:46;7.40;;;4.63;;
60354;SDS011;46198;51.464;-0.066;2023-04-03T10:01:21;12.60;;;6.55;;
60354;SDS011;46198;51.464;-0.066;2023-04-03T10:04:08;9.35;;;5.05;;
60354;SDS011;46198;51.464;-0.066;2023-04-03T10:06:39;10.95;;;4.60;;
60354;SDS011;46198;51.464;-0.066;2023-04-03T10:09:20;8.20;;;5.10;;
60354;SDS011;46198;51.464;-0.066;2023-04-03T10:12:00;11.25;;;5.28;;
60354;SDS011;46198;51.464;-0.066;2023-04-03T10:14:31;10.30;;;5.25;;
60354;SDS011;46198;51.464;-0.066;2023-04-03T10:17:09;8.07;;;4.57;;
60354;SDS011;46198;51.464;-0.066;2023-04-03T10:19:48;9.35;;;4.40;;
60354;SDS011;46198;51.464;-0.066;2023-04-03T10:22:25;10.85;;;5.00;;
60354;SDS011;46198;51.464;-0.066;2023-04-03T10:25:04;6.15;;;3.75;;
60354;SDS011;46198;51.464;-0.066;2023-04-03T10:27:44;6.97;;;3.85;;
60354;SDS011;46198;51.464;-0.066;2023-04-03T10:30:20;7.60;;;4.40;;
60354;SDS011;46198;51.464;-0.066;2023-04-03T10:33:03;8.48;;;4.00;;
60354;SDS011;46198;51.464;-0.066;2023-04-03T10:35:48;6.60;;;4.15;;
60354;SDS011;46198;51.464;-0.066;2023-04-03T10:38:31;9.38;;;4.78;;
60354;SDS011;46198;51.464;-0.066;2023-04-03T10:41:08;5.43;;;3.92;;
60354;SDS011;46198;51.464;-0.066;2023-04-03T10:43:44;6.90;;;4.57;;
60354;SDS011;46198;51.464;-0.066;2023-04-03T10:46:23;6.68;;;4.32;;
60354;SDS011;46198;51.464;-0.066;2023-04-03T10:49:01;6.75;;;4.45;;
60354;SDS011;46198;51.464;-0.066;2023-04-03T10:51:44;9.23;;;4.20;;
60354;SDS011;46198;51.464;-0.066;2023-04-03T10:54:16;8.50;;;4.70;;
60354;SDS011;46198;51.464;-0.066;2023-04-03T10:56:51;10.00;;;5.10;;
60354;SDS011;46198;51.464;-0.066;2023-04-03T10:59:38;7.50;;;4.28;;
60354;SDS011;46198;51.464;-0.066;2023-04-03T11:02:13;8.02;;;4.68;;
60354;SDS011;46198;51.464;-0.066;2023-04-03T11:04:47;6.10;;;4.13;;
60354;SDS011;46198;51.464;-0.066;2023-04-03T11:07:22;6.03;;;4.30;;
60354;SDS011;46198;51.464;-0.066;2023-04-03T11:09:54;9.05;;;4.28;;
60354;SDS011;46198;51.464;-0.066;2023-04-03T11:12:26;8.70;;;4.38;;
60354;SDS011;46198;51.464;-0.066;2023-04-03T11:15:03;6.93;;;4.05;;
60354;SDS011;46198;51.464;-0.066;2023-04-03T11:17:33;5.27;;;4.03;;
60354;SDS011;46198;51.464;-0.066;2023-04-03T11:20:06;8.55;;;4.07;;
60354;SDS011;46198;51.464;-0.066;2023-04-03T11:22:45;5.32;;;4.47;;
60354;SDS011;46198;51.464;-0.066;2023-04-03T11:25:18;9.63;;;4.30;;
60354;SDS011;46198;51.464;-0.066;2023-04-03T11:27:51;7.05;;;3.78;;
60354;SDS011;46198;51.464;-0.066;2023-04-03T11:30:23;14.63;;;5.28;;
60354;SDS011;46198;51.464;-0.066;2023-04-03T11:33:05;6.15;;;3.75;;
60354;SDS011;46198;51.464;-0.066;2023-04-03T11:35:44;6.90;;;3.90;;
60354;SDS011;46198;51.464;-0.066;2023-04-03T11:38:19;6.88;;;3.75;;
60354;SDS011;46198;51.464;-0.066;2023-04-03T11:40:52;5.05;;;3.42;;
60354;SDS011;46198;51.464;-0.066;2023-04-03T11:43:23;5.75;;;3.60;;
60354;SDS011;46198;51.464;-0.066;2023-04-03T11:45:54;4.85;;;3.92;;
60354;SDS011;46198;51.464;-0.066;2023-04-03T12:09:35;5.25;;;3.20;;
60354;SDS011;46198;51.464;-0.066;2023-04-03T12:12:32;5.57;;;3.10;;
60354;SDS011;46198;51.464;-0.066;2023-04-03T12:15:23;5.93;;;3.60;;
60354;SDS011;46198;51.464;-0.066;2023-04-03T12:17:55;3.65;;;2.78;;
60354;SDS011;46198;51.464;-0.066;2023-04-03T12:23:24;4.90;;;2.58;;
60354;SDS011;46198;51.464;-0.066;2023-04-03T12:26:18;4.57;;;3.30;;
60354;SDS011;46198;51.464;-0.066;2023-04-03T12:28:50;6.85;;;3.75;;
60354;SDS011;46198;51.464;-0.066;2023-04-03T12:31:20;7.07;;;2.72;;
60354;SDS011;46198;51.464;-0.066;2023-04-03T12:33:58;6.50;;;3.10;;
60354;SDS011;46198;51.464;-0.066;2023-04-03T12:36:39;4.75;;;2.90;;
60354;SDS011;46198;51.464;-0.066;2023-04-03T12:39:20;5.60;;;2.95;;
60354;SDS011;46198;51.464;-0.066;2023-04-03T12:42:05;6.18;;;2.67;;
60354;SDS011;46198;51.464;-0.066;2023-04-03T12:44:47;4.35;;;2.75;;
60354;SDS011;46198;51.464;-0.066;2023-04-03T12:47:28;6.10;;;2.80;;
60354;SDS011;46198;51.464;-0.066;2023-04-03T12:49:59;4.15;;;2.78;;
60354;SDS011;46198;51.464;-0.066;2023-04-03T12:55:01;2.65;;;2.40;;
60354;SDS011;46198;51.464;-0.066;2023-04-03T12:57:32;5.55;;;2.40;;
60354;SDS011;46198;51.464;-0.066;2023-04-03T13:02:57;4.53;;;2.80;;
60354;SDS011;46198;51.464;-0.066;2023-04-03T13:05:26;5.25;;;2.90;;
60354;SDS011;46198;51.464;-0.066;2023-04-03T13:07:57;4.57;;;2.60;;
60354;SDS011;46198;51.464;-0.066;2023-04-03T13:10:28;5.82;;;2.80;;
60354;SDS011;46198;51.464;-0.066;2023-04-03T13:13:06;6.13;;;2.95;;
60354;SDS011;46198;51.464;-0.066;2023-04-03T13:15:40;5.15;;;2.53;;
60354;SDS011;46198;51.464;-0.066;2023-04-03T13:18:21;3.92;;;2.70;;
60354;SDS011;46198;51.464;-0.066;2023-04-03T13:20:50;5.35;;;3.22;;
60354;SDS011;46198;51.464;-0.066;2023-04-03T13:23:20;4.10;;;2.60;;
60354;SDS011;46198;51.464;-0.066;2023-04-03T13:25:49;4.75;;;2.70;;
60354;SDS011;46198;51.464;-0.066;2023-04-03T13:28:21;4.80;;;2.60;;
60354;SDS011;46198;51.464;-0.066;2023-04-03T13:30:55;4.22;;;2.42;;
60354;SDS011;46198;51.464;-0.066;2023-04-03T13:33:29;6.03;;;2.72;;
60354;SDS011;46198;51.464;-0.066;2023-04-03T13:36:00;6.30;;;2.60;;
60354;SDS011;46198;51.464;-0.066;2023-04-03T13:38:33;4.75;;;2.70;;
60354;SDS011;46198;51.464;-0.066;2023-04-03T13:41:05;3.22;;;2.10;;
60354;SDS011;46198;51.464;-0.066;2023-04-03T13:43:52;4.30;;;2.55;;
60354;SDS011;46198;51.464;-0.066;2023-04-03T13:46:32;4.20;;;3.55;;
60354;SDS011;46198;51.464;-0.066;2023-04-03T13:49:00;3.03;;;2.45;;
60354;SDS011;46198;51.464;-0.066;2023-04-03T13:51:46;5.75;;;2.60;;
60354;SDS011;46198;51.464;-0.066;2023-04-03T13:54:30;2.40;;;1.88;;
60354;SDS011;46198;51.464;-0.066;2023-04-03T13:57:00;2.92;;;2.25;;
60354;SDS011;46198;51.464;-0.066;2023-04-03T13:59:31;5.13;;;2.15;;
60354;SDS011;46198;51.464;-0.066;2023-04-03T14:02:11;5.22;;;2.47;;
60354;SDS011;46198;51.464;-0.066;2023-04-03T14:04:49;4.93;;;2.25;;
60354;SDS011;46198;51.464;-0.066;2023-04-03T14:07:23;4.05;;;2.40;;
60354;SDS011;46198;51.464;-0.066;2023-04-03T14:09:53;3.40;;;2.67;;
60354;SDS011;46198;51.464;-0.066;2023-04-03T14:12:24;5.45;;;2.80;;
60354;SDS011;46198;51.464;-0.066;2023-04-03T14:14:59;4.18;;;2.40;;
60354;SDS011;46198;51.464;-0.066;2023-04-03T14:17:32;5.05;;;2.30;;
60354;SDS011;46198;51.464;-0.066;2023-04-03T14:20:00;6.20;;;3.25;;
60354;SDS011;46198;51.464;-0.066;2023-04-03T14:22:29;5.22;;;3.22;;
60354;SDS011;46198;51.464;-0.066;2023-04-03T14:24:59;3.47;;;2.70;;
60354;SDS011;46198;51.464;-0.066;2023-04-03T14:27:28;6.55;;;3.97;;
60354;SDS011;46198;51.464;-0.066;2023-04-03T14:29:59;4.35;;;2.63;;
60354;SDS011;46198;51.464;-0.066;2023-04-03T14:32:29;6.18;;;3.33;;
60354;SDS011;46198;51.464;-0.066;2023-04-03T14:34:58;7.45;;;3.50;;
60354;SDS011;46198;51.464;-0.066;2023-04-03T14:37:27;5.57;;;3.30;;
60354;SDS011;46198;51.464;-0.066;2023-04-03T14:39:58;5.68;;;3.38;;
60354;SDS011;46198;51.464;-0.066;2023-04-03T14:42:29;5.20;;;3.15;;
60354;SDS011;46198;51.464;-0.066;2023-04-03T14:45:00;5.10;;;3.60;;
60354;SDS011;46198;51.464;-0.066;2023-04-03T14:47:31;5.57;;;3.60;;
60354;SDS011;46198;51.464;-0.066;2023-04-03T14:50:00;5.75;;;3.67;;
60354;SDS011;46198;51.464;-0.066;2023-04-03T14:52:30;8.15;;;3.63;;
60354;SDS011;46198;51.464;-0.066;2023-04-03T14:57:29;5.75;;;3.30;;
60354;SDS011;46198;51.464;-0.066;2023-04-03T14:59:57;11.15;;;5.13;;
60354;SDS011;46198;51.464;-0.066;2023-04-03T15:02:29;6.55;;;3.75;;
60354;SDS011;46198;51.464;-0.066;2023-04-03T15:05:00;7.82;;;4.07;;
60354;SDS011;46198;51.464;-0.066;2023-04-03T15:10:00;6.32;;;3.72;;
60354;SDS011;46198;51.464;-0.066;2023-04-03T15:12:31;7.13;;;4.20;;
60354;SDS011;46198;51.464;-0.066;2023-04-03T15:15:03;5.75;;;3.63;;
60354;SDS011;46198;51.464;-0.066;2023-04-03T15:17:31;4.55;;;3.47;;
60354;SDS011;46198;51.464;-0.066;2023-04-03T15:20:01;3.53;;;3.22;;
60354;SDS011;46198;51.464;-0.066;2023-04-03T15:22:30;7.03;;;3.90;;
60354;SDS011;46198;51.464;-0.066;2023-04-03T15:24:58;3.85;;;3.30;;
60354;SDS011;46198;51.464;-0.066;2023-04-03T15:27:26;4.75;;;2.90;;
60354;SDS011;46198;51.464;-0.066;2023-04-03T15:29:55;7.85;;;3.40;;
60354;SDS011;46198;51.464;-0.066;2023-04-03T15:32:24;5.97;;;2.92;;
60354;SDS011;46198;51.464;-0.066;2023-04-03T15:34:53;4.80;;;3.05;;
60354;SDS011;46198;51.464;-0.066;2023-04-03T15:37:22;8.90;;;3.03;;
60354;SDS011;46198;51.464;-0.066;2023-04-03T15:39:50;4.70;;;2.83;;
60354;SDS011;46198;51.464;-0.066;2023-04-03T15:42:18;4.55;;;2.97;;
60354;SDS011;46198;51.464;-0.066;2023-04-03T15:44:47;3.95;;;2.92;;
60354;SDS011;46198;51.464;-0.066;2023-04-03T15:47:15;4.82;;;2.83;;
60354;SDS011;46198;51.464;-0.066;2023-04-03T15:49:44;5.35;;;3.13;;
60354;SDS011;46198;51.464;-0.066;2023-04-03T15:52:13;6.35;;;3.55;;